Time;durP1;ratioP1;P1;durP2;ratioP2;P2;SDS_P1;SDS_P2;PMS_P1;PMS_P2;Temp;Humidity;BMP_temperature;BMP_pressure;BME280_temperature;BME280_humidity;BME280_pressure;Samples;Min_cycle;Max_cycle;Signal;HPM_P1;HPM_P2
2022/06/10 00:00:21;;;;;;;0.70;0.70;;;16.00;69.20;;;;;;5083407;28;20055;-63
2022/06/10 00:02:47;;;;;;;1.00;0.80;;;16.00;69.20;;;;;;5084509;28;20436;-63
2022/06/10 00:05:16;;;;;;;2.75;0.88;;;15.90;69.30;;;;;;5085006;28;20024;-63
2022/06/10 00:07:42;;;;;;;0.85;0.68;;;15.90;69.40;;;;;;5078158;28;20032;-63
2022/06/10 00:10:11;;;;;;;0.50;0.50;;;15.90;69.50;;;;;;5085720;28;20388;-64
2022/06/10 00:12:37;;;;;;;2.85;0.70;;;15.90;69.50;;;;;;5072334;28;20025;-62
2022/06/10 00:15:04;;;;;;;0.90;0.85;;;15.80;69.60;;;;;;5079467;28;20024;-63
2022/06/10 00:17:30;;;;;;;1.55;1.10;;;15.80;69.70;;;;;;5088268;28;20517;-65
2022/06/10 00:19:56;;;;;;;2.05;0.85;;;15.80;69.80;;;;;;5085203;28;20387;-65
2022/06/10 00:22:22;;;;;;;1.55;0.90;;;15.80;69.80;;;;;;5087219;28;20036;-64
2022/06/10 00:24:51;;;;;;;1.75;0.65;;;15.70;69.80;;;;;;5080361;28;20025;-64
2022/06/10 00:27:19;;;;;;;1.80;0.90;;;15.70;69.90;;;;;;5075905;28;20016;-64
2022/06/10 00:29:45;;;;;;;0.80;0.80;;;15.70;70.00;;;;;;5089720;28;20039;-64
2022/06/10 00:32:11;;;;;;;0.75;0.70;;;15.70;70.00;;;;;;5097517;28;20040;-65
2022/06/10 00:34:37;;;;;;;0.63;0.63;;;15.60;70.00;;;;;;5094626;28;20501;-64
2022/06/10 00:37:04;;;;;;;0.70;0.70;;;15.60;70.10;;;;;;5092235;28;20032;-64
2022/06/10 00:39:30;;;;;;;1.45;0.80;;;15.60;70.10;;;;;;5085926;28;20491;-65
2022/06/10 00:41:56;;;;;;;1.13;0.80;;;15.60;70.20;;;;;;5094707;28;20031;-65
2022/06/10 00:44:44;;;;;;;0.63;0.60;;;15.50;70.30;;;;;;5093787;28;20024;-64
2022/06/10 00:47:13;;;;;;;3.50;0.63;;;15.50;70.30;;;;;;5092777;28;20020;-63
2022/06/10 00:49:40;;;;;;;1.50;0.60;;;15.40;70.30;;;;;;5085668;28;20494;-63
2022/06/10 00:52:22;;;;;;;0.60;0.60;;;15.40;70.40;;;;;;5102051;28;20103;-63
2022/06/10 00:54:51;;;;;;;1.08;0.73;;;15.40;70.40;;;;;;5093894;28;20386;-64
2022/06/10 00:57:26;;;;;;;0.63;0.52;;;15.40;70.60;;;;;;5091364;28;20080;-64
2022/06/10 01:00:05;;;;;;;0.98;0.93;;;15.40;70.60;;;;;;5103695;28;20110;-63
2022/06/10 01:02:34;;;;;;;0.70;0.47;;;15.40;70.70;;;;;;5083118;28;20131;-64
2022/06/10 01:05:03;;;;;;;3.83;0.90;;;15.30;70.70;;;;;;5101922;28;20031;-63
2022/06/10 01:07:36;;;;;;;1.30;0.82;;;15.30;70.70;;;;;;5085086;28;20048;-63
2022/06/10 01:10:06;;;;;;;0.63;0.60;;;15.30;70.70;;;;;;5076106;28;20029;-63
2022/06/10 01:12:55;;;;;;;0.75;0.60;;;15.20;70.80;;;;;;5095273;28;20037;-63
2022/06/10 01:15:29;;;;;;;0.80;0.50;;;15.20;70.90;;;;;;5084637;28;20024;-62
2022/06/10 01:18:01;;;;;;;1.45;0.90;;;15.20;70.90;;;;;;5096655;28;20497;-63
2022/06/10 01:20:48;;;;;;;2.33;0.90;;;15.20;70.90;;;;;;5092420;28;20632;-64
2022/06/10 01:23:51;;;;;;;1.65;0.95;;;15.20;71.00;;;;;;5078007;28;20481;-64
2022/06/10 01:27:47;;;;;;;1.50;0.73;;;15.10;71.10;;;;;;5057953;28;20075;-63
2022/06/10 01:29:46;;;;;;;0.50;0.50;;;15.10;71.20;;;;;;5083600;28;20036;-64
2022/06/10 01:32:27;;;;;;;0.88;0.47;;;15.00;71.30;;;;;;5088535;28;20028;-63
2022/06/10 01:35:15;;;;;;;2.67;1.30;;;15.00;71.40;;;;;;5094291;28;20015;-63
2022/06/10 01:37:47;;;;;;;1.30;0.82;;;15.00;71.50;;;;;;5098991;28;20032;-63
2022/06/10 01:40:38;;;;;;;1.80;0.93;;;15.00;71.50;;;;;;5096918;28;20024;-63
2022/06/10 01:43:16;;;;;;;0.60;0.60;;;15.00;71.60;;;;;;5078683;28;20390;-64
2022/06/10 01:45:45;;;;;;;0.88;0.70;;;14.90;71.60;;;;;;5095046;28;20277;-63
2022/06/10 01:48:21;;;;;;;1.40;0.73;;;14.90;71.60;;;;;;5097857;28;20105;-64
2022/06/10 01:51:00;;;;;;;1.77;0.80;;;14.90;71.60;;;;;;5099535;28;20111;-63
2022/06/10 01:53:34;;;;;;;1.35;0.52;;;14.90;71.60;;;;;;5095665;28;20031;-63
2022/06/10 01:56:20;;;;;;;1.65;0.70;;;14.80;71.70;;;;;;5090702;28;20027;-64
2022/06/10 01:58:51;;;;;;;1.15;1.02;;;14.90;71.80;;;;;;5093414;28;20028;-64
2022/06/10 02:01:22;;;;;;;1.35;0.85;;;14.80;71.70;;;;;;5102892;28;20047;-64
2022/06/10 02:04:01;;;;;;;5.40;1.05;;;14.80;72.40;;;;;;5089871;28;20027;-64
2022/06/10 02:06:37;;;;;;;1.95;0.82;;;14.80;71.90;;;;;;5082411;28;20063;-65
2022/06/10 02:09:15;;;;;;;2.97;0.80;;;14.80;72.00;;;;;;5086269;28;20095;-63
2022/06/10 02:11:46;;;;;;;0.95;0.80;;;14.70;71.90;;;;;;5100997;28;20032;-63
2022/06/10 02:14:18;;;;;;;0.70;0.70;;;14.70;71.90;;;;;;5087036;28;20068;-64
2022/06/10 02:16:47;;;;;;;0.85;0.68;;;14.70;72.00;;;;;;5098654;28;20430;-65
2022/06/10 02:19:19;;;;;;;0.40;0.40;;;14.70;72.00;;;;;;5082430;28;20020;-64
2022/06/10 02:21:55;;;;;;;0.80;0.80;;;14.70;72.00;;;;;;5092931;28;20114;-64
2022/06/10 02:24:30;;;;;;;1.00;0.80;;;14.70;72.00;;;;;;5078666;28;20452;-64
2022/06/10 02:27:01;;;;;;;1.27;0.73;;;14.70;72.10;;;;;;5095298;28;20077;-64
2022/06/10 02:29:35;;;;;;;4.78;0.77;;;14.60;72.10;;;;;;5094777;28;20383;-64
2022/06/10 02:32:01;;;;;;;1.63;0.52;;;14.60;72.10;;;;;;5089208;28;20027;-64
2022/06/10 02:34:28;;;;;;;0.60;0.60;;;14.60;72.20;;;;;;5097974;28;20032;-64
2022/06/10 02:37:08;;;;;;;1.02;0.80;;;14.60;72.20;;;;;;5086979;28;20033;-64
2022/06/10 02:39:57;;;;;;;0.95;0.80;;;14.60;72.30;;;;;;5096275;28;20082;-64
2022/06/10 02:42:47;;;;;;;1.40;0.70;;;14.70;72.30;;;;;;5070724;28;20475;-64
2022/06/10 02:45:27;;;;;;;0.73;0.60;;;14.70;72.50;;;;;;5082596;28;20506;-63
2022/06/10 02:48:05;;;;;;;0.75;0.60;;;14.70;72.70;;;;;;5078289;28;20012;-62
2022/06/10 02:50:31;;;;;;;0.80;0.80;;;14.70;72.90;;;;;;5084324;28;20032;-63
2022/06/10 02:52:58;;;;;;;0.80;0.70;;;14.80;73.20;;;;;;5100763;28;20036;-63
2022/06/10 02:55:26;;;;;;;0.60;0.60;;;14.80;73.20;;;;;;5088582;28;20341;-64
2022/06/10 03:01:13;;;;;;;0.80;0.75;;;14.90;73.40;;;;;;5081474;28;20047;-64
2022/06/10 03:03:50;;;;;;;5.20;0.70;;;15.00;73.50;;;;;;5093272;28;20028;-64
2022/06/10 03:06:36;;;;;;;2.08;1.13;;;15.00;73.70;;;;;;5073259;28;20347;-64
2022/06/10 03:09:35;;;;;;;1.13;0.80;;;15.10;74.00;;;;;;5079880;28;20070;-64
2022/06/10 03:12:13;;;;;;;0.75;0.73;;;15.10;74.10;;;;;;5089422;28;20103;-63
2022/06/10 03:15:03;;;;;;;0.77;0.70;;;15.10;74.20;;;;;;5075487;28;20039;-63
2022/06/10 03:17:51;;;;;;;1.92;0.93;;;15.20;74.30;;;;;;5086625;28;20032;-62
2022/06/10 03:20:27;;;;;;;3.88;1.02;;;15.30;74.40;;;;;;5079089;28;20029;-64
2022/06/10 03:23:09;;;;;;;2.50;0.90;;;15.30;74.40;;;;;;5086105;28;20036;-63
2022/06/10 03:25:52;;;;;;;1.27;0.90;;;15.30;74.50;;;;;;5102508;28;20457;-63
2022/06/10 03:28:29;;;;;;;2.95;0.85;;;15.40;74.60;;;;;;5074635;28;20486;-63
2022/06/10 03:31:03;;;;;;;0.85;0.80;;;15.40;74.60;;;;;;5089729;28;20033;-63
2022/06/10 03:33:37;;;;;;;0.95;0.80;;;15.50;74.80;;;;;;5093611;28;20446;-63
2022/06/10 03:36:13;;;;;;;1.30;0.85;;;15.50;74.80;;;;;;5075511;28;20496;-63
2022/06/10 03:38:41;;;;;;;0.90;0.68;;;15.60;74.90;;;;;;5084320;28;20016;-63
2022/06/10 03:41:08;;;;;;;0.80;0.70;;;15.60;74.80;;;;;;5099204;28;20030;-63
2022/06/10 03:43:38;;;;;;;1.08;0.57;;;15.60;74.90;;;;;;5089621;28;20395;-64
2022/06/10 03:46:14;;;;;;;1.50;0.70;;;15.70;75.00;;;;;;5096527;28;20223;-64
2022/06/10 03:48:43;;;;;;;1.10;1.00;;;15.70;75.00;;;;;;5095477;28;20486;-64
2022/06/10 03:51:12;;;;;;;2.38;0.60;;;15.80;75.00;;;;;;5088780;28;20161;-64
2022/06/10 03:53:37;;;;;;;0.52;0.52;;;15.80;74.90;;;;;;5098348;28;20410;-64
2022/06/10 03:56:03;;;;;;;0.73;0.60;;;15.90;75.00;;;;;;5083508;28;20040;-65
2022/06/10 03:58:29;;;;;;;1.35;0.75;;;15.90;75.10;;;;;;5077529;28;20147;-64
2022/06/10 04:00:58;;;;;;;1.20;0.40;;;15.90;75.20;;;;;;5091967;28;20503;-64
2022/06/10 04:03:24;;;;;;;0.73;0.73;;;16.00;75.90;;;;;;5085329;28;20085;-64
2022/06/10 04:05:50;;;;;;;2.85;0.73;;;16.00;75.30;;;;;;5087243;28;20020;-63
2022/06/10 04:08:15;;;;;;;0.70;0.70;;;16.00;75.20;;;;;;5075030;28;20024;-64
2022/06/10 04:10:41;;;;;;;1.63;0.88;;;16.10;75.20;;;;;;5084441;28;20036;-64
2022/06/10 04:13:07;;;;;;;1.15;0.60;;;16.10;75.10;;;;;;5088556;28;20056;-64
2022/06/10 04:15:33;;;;;;;2.85;0.90;;;16.10;75.20;;;;;;5075260;28;20059;-64
2022/06/10 04:17:59;;;;;;;4.43;1.40;;;16.10;75.40;;;;;;5084377;28;20024;-64
2022/06/10 04:20:35;;;;;;;1.40;1.17;;;16.10;75.40;;;;;;5082186;28;20044;-64
2022/06/10 04:23:02;;;;;;;1.42;0.70;;;16.20;75.70;;;;;;5087720;28;20458;-64
2022/06/10 04:25:28;;;;;;;1.95;1.05;;;16.20;75.60;;;;;;5089201;28;20111;-63
2022/06/10 04:27:54;;;;;;;0.75;0.68;;;16.20;76.40;;;;;;5087276;28;20424;-63
2022/06/10 04:30:29;;;;;;;1.50;1.08;;;16.30;76.40;;;;;;5078250;28;20033;-63
2022/06/10 04:32:56;;;;;;;3.03;0.70;;;16.30;76.70;;;;;;5090394;28;20020;-62
2022/06/10 04:35:23;;;;;;;2.30;1.40;;;16.40;76.60;;;;;;5079149;28;20023;-63
2022/06/10 04:37:50;;;;;;;1.42;0.95;;;16.40;77.10;;;;;;5092400;28;20472;-63
2022/06/10 04:40:20;;;;;;;1.05;0.80;;;16.40;77.20;;;;;;5087429;28;20036;-64
2022/06/10 04:42:48;;;;;;;4.85;1.27;;;16.50;77.20;;;;;;5088295;28;20356;-64
2022/06/10 04:45:16;;;;;;;1.08;0.73;;;16.50;77.30;;;;;;5074286;28;20431;-64
2022/06/10 04:47:41;;;;;;;5.53;1.10;;;16.50;77.10;;;;;;5081392;28;20016;-63
2022/06/10 04:50:09;;;;;;;4.15;1.10;;;16.60;77.40;;;;;;5081704;28;20395;-63
2022/06/10 04:52:35;;;;;;;2.92;1.30;;;16.50;77.60;;;;;;5087966;28;20031;-64
2022/06/10 04:55:03;;;;;;;1.13;0.82;;;16.60;77.80;;;;;;5081692;28;20023;-64
2022/06/10 04:57:29;;;;;;;1.50;1.40;;;16.60;77.70;;;;;;5091692;28;20396;-63
2022/06/10 04:59:55;;;;;;;1.15;1.05;;;16.60;78.00;;;;;;5087052;28;20035;-63
2022/06/10 05:02:21;;;;;;;2.00;0.80;;;16.60;78.20;;;;;;5085424;28;20524;-63
2022/06/10 05:04:47;;;;;;;3.35;0.90;;;16.60;78.90;;;;;;5080655;28;20020;-63
2022/06/10 05:07:13;;;;;;;0.93;0.85;;;16.50;79.30;;;;;;5079127;28;20035;-63
2022/06/10 05:09:38;;;;;;;1.30;0.85;;;16.50;79.90;;;;;;5079803;28;20036;-62
2022/06/10 05:12:05;;;;;;;2.22;1.08;;;16.50;79.90;;;;;;5076687;28;20386;-62
2022/06/10 05:14:31;;;;;;;2.42;0.82;;;16.50;79.80;;;;;;5074493;28;20056;-62
2022/06/10 05:16:57;;;;;;;2.00;0.80;;;16.50;79.80;;;;;;5086808;28;20104;-62
2022/06/10 05:19:24;;;;;;;2.10;1.08;;;16.60;79.50;;;;;;5075334;28;20023;-63
2022/06/10 05:21:49;;;;;;;3.08;0.93;;;16.60;79.70;;;;;;5084726;28;20028;-63
2022/06/10 05:24:16;;;;;;;6.15;1.20;;;16.70;79.50;;;;;;5070189;28;20164;-63
2022/06/10 05:26:42;;;;;;;1.58;1.40;;;16.80;79.50;;;;;;5086740;28;20063;-63
2022/06/10 05:29:07;;;;;;;1.33;0.82;;;16.90;79.80;;;;;;5091411;28;20036;-64
2022/06/10 05:31:36;;;;;;;2.20;0.80;;;16.90;79.60;;;;;;5082700;28;20032;-63
2022/06/10 05:36:46;;;;;;;3.28;1.63;;;17.00;79.70;;;;;;5090774;28;20441;-65
2022/06/10 05:39:11;;;;;;;5.00;1.92;;;17.10;80.30;;;;;;5085584;28;20024;-65
2022/06/10 05:44:22;;;;;;;1.35;0.90;;;17.10;80.30;;;;;;5093678;28;20043;-64
2022/06/10 05:46:48;;;;;;;1.85;1.20;;;17.20;80.10;;;;;;5094346;28;20047;-65
2022/06/10 05:49:14;;;;;;;3.35;1.05;;;17.20;80.50;;;;;;5090090;28;20020;-64
2022/06/10 05:51:40;;;;;;;1.10;1.00;;;17.30;80.40;;;;;;5086528;28;20105;-64
2022/06/10 05:54:05;;;;;;;1.20;1.10;;;17.30;80.60;;;;;;5092987;28;20052;-65
2022/06/10 05:56:31;;;;;;;2.28;0.80;;;17.40;80.50;;;;;;5088029;28;20040;-65
2022/06/10 05:58:57;;;;;;;4.00;1.48;;;17.40;80.30;;;;;;5086157;28;20070;-65
2022/06/10 06:01:22;;;;;;;1.77;0.80;;;17.50;80.00;;;;;;5085351;28;20408;-64
2022/06/10 06:03:48;;;;;;;1.77;1.40;;;17.60;79.80;;;;;;5095252;28;20534;-63
2022/06/10 06:06:15;;;;;;;4.75;0.93;;;17.60;79.60;;;;;;5075676;28;20044;-65
2022/06/10 06:08:40;;;;;;;3.40;1.10;;;17.60;79.70;;;;;;5082402;28;20039;-65
2022/06/10 06:11:06;;;;;;;1.13;0.90;;;17.60;79.50;;;;;;5087264;28;20313;-64
2022/06/10 06:13:32;;;;;;;2.83;1.55;;;17.70;79.50;;;;;;5078247;28;20017;-65
2022/06/10 06:15:58;;;;;;;1.17;0.95;;;17.70;79.50;;;;;;5087093;28;20394;-65
2022/06/10 06:18:24;;;;;;;2.17;0.90;;;17.80;79.40;;;;;;5082245;28;20028;-65
2022/06/10 06:20:50;;;;;;;1.55;1.10;;;17.90;79.70;;;;;;5090960;28;20028;-65
2022/06/10 06:23:15;;;;;;;2.70;0.93;;;17.90;79.50;;;;;;5083064;28;20047;-65
2022/06/10 06:25:44;;;;;;;0.82;0.60;;;18.00;79.40;;;;;;5086730;28;20028;-64
2022/06/10 06:28:09;;;;;;;0.77;0.77;;;18.00;79.20;;;;;;5097946;28;20075;-65
2022/06/10 06:30:36;;;;;;;3.67;1.10;;;18.10;79.10;;;;;;5080651;28;20036;-64
2022/06/10 06:33:05;;;;;;;2.00;0.80;;;18.20;79.00;;;;;;5088555;28;20035;-65
2022/06/10 06:35:33;;;;;;;2.53;1.08;;;18.30;78.60;;;;;;5082401;28;20028;-64
2022/06/10 06:38:01;;;;;;;2.58;0.93;;;18.40;78.40;;;;;;5092035;28;20032;-66
2022/06/10 06:40:27;;;;;;;3.03;1.13;;;18.40;78.20;;;;;;5094583;28;20020;-65
2022/06/10 06:42:53;;;;;;;2.13;0.85;;;18.50;78.30;;;;;;5099602;28;20043;-65
2022/06/10 06:45:20;;;;;;;4.10;1.20;;;18.50;78.00;;;;;;5085850;28;20036;-64
2022/06/10 06:47:46;;;;;;;1.58;1.10;;;18.60;78.00;;;;;;5090690;28;20028;-65
2022/06/10 06:50:15;;;;;;;1.15;0.80;;;18.70;77.80;;;;;;5081994;28;20027;-64
2022/06/10 06:52:41;;;;;;;1.38;0.88;;;18.70;77.70;;;;;;5080279;28;20720;-64
2022/06/10 06:55:08;;;;;;;3.80;1.30;;;18.70;77.50;;;;;;5099411;28;20176;-65
2022/06/10 06:57:33;;;;;;;4.18;1.40;;;18.80;77.50;;;;;;5091721;28;20028;-65
2022/06/10 07:00:06;;;;;;;2.75;1.48;;;18.80;77.40;;;;;;5083049;28;20039;-64
2022/06/10 07:02:32;;;;;;;;;;;18.80;77.40;;;;;;5083165;28;20329;-66
2022/06/10 07:04:58;;;;;;;1.25;1.08;;;18.90;77.30;;;;;;5088711;28;19915;-64
2022/06/10 07:07:24;;;;;;;0.82;0.82;;;18.90;77.00;;;;;;5078467;28;20051;-63
2022/06/10 07:09:50;;;;;;;1.52;0.90;;;18.90;76.80;;;;;;5076825;28;20044;-64
2022/06/10 07:12:16;;;;;;;2.45;1.13;;;19.00;76.80;;;;;;5085335;28;20020;-63
2022/06/10 07:14:41;;;;;;;4.60;0.90;;;19.10;76.70;;;;;;5069972;28;20034;-64
2022/06/10 07:17:08;;;;;;;3.55;1.67;;;19.10;76.60;;;;;;5081507;28;20032;-64
2022/06/10 07:19:33;;;;;;;8.75;1.17;;;19.20;76.50;;;;;;5071259;28;20044;-61
2022/06/10 07:21:59;;;;;;;1.58;1.02;;;19.20;76.30;;;;;;5075025;28;20024;-63
2022/06/10 07:24:25;;;;;;;1.20;0.98;;;19.30;76.90;;;;;;5068587;28;20047;-63
2022/06/10 07:26:51;;;;;;;1.58;1.33;;;19.30;76.30;;;;;;5069238;28;20081;-63
2022/06/10 07:29:18;;;;;;;1.63;1.52;;;19.30;76.00;;;;;;5073726;28;20091;-63
2022/06/10 07:31:44;;;;;;;3.92;1.02;;;19.20;75.80;;;;;;5072282;28;20038;-64
2022/06/10 07:34:10;;;;;;;3.60;1.13;;;19.20;76.00;;;;;;5084844;28;20040;-63
2022/06/10 07:36:37;;;;;;;3.13;1.35;;;19.20;76.00;;;;;;5076236;28;20029;-63
2022/06/10 07:39:04;;;;;;;1.48;1.25;;;19.20;75.60;;;;;;5079103;28;20085;-63
2022/06/10 07:44:14;;;;;;;1.92;1.02;;;19.20;75.30;;;;;;5070338;28;20360;-63
2022/06/10 07:46:40;;;;;;;4.50;0.70;;;19.20;75.20;;;;;;5080672;28;20031;-63
2022/06/10 07:49:06;;;;;;;0.50;0.50;;;19.20;75.10;;;;;;5075719;28;20028;-62
2022/06/10 07:51:31;;;;;;;2.30;1.38;;;19.30;75.10;;;;;;5071471;28;20704;-63
2022/06/10 07:53:57;;;;;;;0.73;0.73;;;19.30;74.80;;;;;;5084878;28;20036;-63
2022/06/10 07:56:22;;;;;;;3.75;0.93;;;19.30;74.50;;;;;;5074424;28;20050;-63
2022/06/10 07:58:49;;;;;;;7.68;1.05;;;19.40;74.30;;;;;;5073854;28;20037;-65
2022/06/10 08:01:16;;;;;;;1.02;0.70;;;19.50;74.20;;;;;;5079059;28;20513;-65
2022/06/10 08:03:42;;;;;;;1.75;1.05;;;19.50;73.90;;;;;;5084749;28;20032;-63
2022/06/10 08:06:08;;;;;;;4.22;0.68;;;19.60;73.40;;;;;;5070800;28;20031;-65
2022/06/10 08:08:34;;;;;;;1.02;0.68;;;19.70;73.30;;;;;;5079769;28;20024;-64
2022/06/10 08:11:00;;;;;;;1.27;0.88;;;19.90;72.90;;;;;;5073338;28;21793;-65
2022/06/10 08:13:26;;;;;;;1.10;0.98;;;20.00;72.60;;;;;;5080388;28;20040;-64
2022/06/10 08:15:52;;;;;;;0.63;0.60;;;20.30;72.30;;;;;;5080222;28;20647;-64
2022/06/10 08:18:20;;;;;;;1.08;0.98;;;20.50;71.10;;;;;;5077356;28;20035;-65
2022/06/10 08:23:31;;;;;;;0.65;0.65;;;20.90;70.10;;;;;;5082007;28;20051;-65
2022/06/10 08:26:00;;;;;;;0.95;0.80;;;21.00;69.40;;;;;;5084200;28;20027;-64
2022/06/10 08:28:26;;;;;;;1.25;0.57;;;21.10;69.00;;;;;;5085519;28;20058;-65
2022/06/10 08:30:52;;;;;;;0.73;0.70;;;21.20;68.20;;;;;;5079975;28;20035;-64
2022/06/10 08:33:18;;;;;;;1.30;0.90;;;21.30;67.90;;;;;;5075620;28;20038;-64
2022/06/10 08:35:45;;;;;;;1.80;0.68;;;21.30;67.30;;;;;;5084275;28;20125;-65
2022/06/10 08:38:14;;;;;;;2.05;0.73;;;21.30;66.70;;;;;;5081352;28;20036;-65
2022/06/10 08:41:00;;;;;;;3.47;0.60;;;21.30;66.20;;;;;;5074307;28;20062;-63
2022/06/10 08:43:47;;;;;;;0.82;0.80;;;21.40;65.80;;;;;;5070372;28;20032;-64
2022/06/10 08:46:29;;;;;;;1.13;0.60;;;21.30;65.20;;;;;;5078179;28;20048;-62
2022/06/10 08:49:19;;;;;;;1.10;0.77;;;21.30;65.80;;;;;;5080440;28;20027;-65
2022/06/10 08:51:57;;;;;;;0.65;0.50;;;21.30;65.60;;;;;;5077844;28;20036;-62
2022/06/10 08:54:55;;;;;;;0.77;0.60;;;21.30;65.60;;;;;;5079821;28;20035;-63
2022/06/10 08:57:36;;;;;;;2.65;0.73;;;21.30;65.80;;;;;;5072292;28;20024;-63
2022/06/10 09:00:06;;;;;;;0.47;0.47;;;21.50;65.80;;;;;;5086988;28;20366;-63
2022/06/10 09:03:22;;;;;;;1.70;0.77;;;21.60;65.90;;;;;;5083218;28;20131;-65
2022/06/10 09:05:50;;;;;;;9.20;1.10;;;21.80;65.10;;;;;;5052257;28;20214;-65
2022/06/10 09:08:24;;;;;;;2.65;0.88;;;22.00;64.50;;;;;;5079131;28;20021;-65
2022/06/10 09:11:24;;;;;;;1.45;1.00;;;22.10;64.10;;;;;;5087638;28;20028;-65
2022/06/10 09:13:53;;;;;;;0.73;0.73;;;22.20;64.00;;;;;;5083702;28;20016;-64
2022/06/10 09:16:35;;;;;;;0.90;0.63;;;22.40;64.00;;;;;;5084253;28;20487;-62
2022/06/10 09:19:26;;;;;;;2.28;0.93;;;22.60;64.10;;;;;;5079034;28;20029;-65
2022/06/10 09:22:09;;;;;;;1.50;0.60;;;22.80;63.30;;;;;;5081631;28;20701;-63
2022/06/10 09:24:38;;;;;;;2.75;1.58;;;22.80;62.30;;;;;;5082204;28;20027;-64
2022/06/10 09:27:06;;;;;;;4.68;0.93;;;22.80;62.40;;;;;;5085268;28;20755;-65
2022/06/10 09:29:32;;;;;;;2.05;1.40;;;22.80;62.40;;;;;;5086129;28;20037;-64
2022/06/10 09:32:18;;;;;;;0.82;0.55;;;22.90;61.50;;;;;;5089424;28;20062;-64
2022/06/10 09:35:22;;;;;;;1.08;0.60;;;22.80;62.20;;;;;;5095181;28;20127;-63
2022/06/10 09:38:21;;;;;;;0.73;0.70;;;22.70;62.10;;;;;;5080705;28;20031;-65
2022/06/10 09:41:11;;;;;;;3.88;1.05;;;22.80;62.00;;;;;;5074642;28;20024;-65
2022/06/10 09:43:49;;;;;;;0.60;0.60;;;23.00;61.30;;;;;;5079424;28;20703;-64
2022/06/10 09:46:29;;;;;;;8.45;1.13;;;23.10;60.80;;;;;;5082947;28;20028;-64
2022/06/10 09:49:12;;;;;;;0.43;0.43;;;23.10;60.20;;;;;;5084390;28;20036;-65
2022/06/10 09:51:38;;;;;;;0.65;0.65;;;23.00;60.00;;;;;;5082629;28;20060;-65
2022/06/10 09:54:21;;;;;;;0.73;0.60;;;23.00;60.10;;;;;;5079155;28;20067;-65
2022/06/10 09:57:12;;;;;;;1.30;0.70;;;23.10;60.70;;;;;;5092888;28;20116;-65
2022/06/10 09:59:53;;;;;;;1.35;0.85;;;23.10;60.60;;;;;;5087231;28;20041;-64
2022/06/10 10:02:21;;;;;;;7.03;2.38;;;23.20;60.90;;;;;;5073210;28;20479;-65
2022/06/10 10:05:15;;;;;;;0.75;0.68;;;23.30;61.20;;;;;;5086546;28;20032;-65
2022/06/10 10:08:03;;;;;;;1.42;0.82;;;23.60;60.30;;;;;;5089571;28;20466;-64
2022/06/10 10:10:34;;;;;;;2.40;1.20;;;23.80;60.10;;;;;;5088134;28;20032;-64
2022/06/10 10:13:20;;;;;;;2.07;0.80;;;23.90;58.60;;;;;;5086770;28;20036;-62
2022/06/10 10:16:18;;;;;;;2.95;1.20;;;23.90;58.30;;;;;;5057548;28;20052;-63
2022/06/10 10:19:09;;;;;;;1.65;1.10;;;23.80;58.50;;;;;;5082815;28;20051;-63
2022/06/10 10:21:50;;;;;;;1.45;0.75;;;23.70;59.00;;;;;;5080317;28;20054;-62
2022/06/10 10:24:24;;;;;;;0.73;0.73;;;23.60;58.70;;;;;;5082160;28;20396;-63
2022/06/10 10:26:51;;;;;;;1.40;0.82;;;23.60;59.20;;;;;;5092342;28;20024;-65
2022/06/10 10:29:21;;;;;;;3.05;0.95;;;23.60;59.40;;;;;;5092080;28;20016;-64
2022/06/10 10:31:59;;;;;;;1.48;0.68;;;23.70;59.20;;;;;;5093058;28;20032;-65
2022/06/10 10:34:30;;;;;;;0.50;0.50;;;23.80;58.90;;;;;;5090067;28;20032;-65
2022/06/10 10:37:00;;;;;;;0.80;0.80;;;23.80;58.60;;;;;;5085199;28;20028;-64
2022/06/10 10:39:26;;;;;;;1.55;0.70;;;23.70;58.20;;;;;;5089423;28;20039;-65
2022/06/10 10:41:55;;;;;;;1.02;0.90;;;23.70;58.50;;;;;;5077938;28;20024;-65
2022/06/10 10:44:27;;;;;;;0.68;0.68;;;23.60;58.60;;;;;;5079654;28;20484;-66
2022/06/10 10:47:10;;;;;;;1.58;1.42;;;23.70;58.70;;;;;;5088031;28;20061;-65
2022/06/10 10:49:44;;;;;;;2.65;1.00;;;23.70;58.20;;;;;;5090145;28;20032;-65
2022/06/10 10:52:22;;;;;;;2.55;1.20;;;23.70;58.80;;;;;;5089920;28;20634;-65
2022/06/10 10:54:54;;;;;;;1.45;0.80;;;23.60;58.80;;;;;;5092886;28;20366;-64
2022/06/10 10:57:22;;;;;;;;;;;23.60;58.70;;;;;;5091053;28;20103;-65
2022/06/10 11:00:13;;;;;;;0.80;0.75;;;23.70;58.70;;;;;;5084138;28;20359;-66
2022/06/10 11:02:53;;;;;;;4.32;1.42;;;23.70;58.40;;;;;;5091896;28;20428;-65
2022/06/10 11:05:21;;;;;;;0.80;0.80;;;23.70;58.40;;;;;;5074696;28;20036;-65
2022/06/10 11:08:04;;;;;;;2.60;0.80;;;23.80;58.10;;;;;;5086477;28;20024;-66
2022/06/10 11:10:30;;;;;;;3.08;1.50;;;23.80;58.50;;;;;;5087478;28;20036;-66
2022/06/10 11:13:01;;;;;;;3.17;1.40;;;23.90;58.00;;;;;;5092111;28;20032;-66
2022/06/10 11:15:30;;;;;;;1.38;0.70;;;23.80;58.00;;;;;;5085484;28;20020;-64
2022/06/10 11:17:58;;;;;;;2.15;1.30;;;23.80;58.10;;;;;;5073116;28;20107;-64
2022/06/10 11:20:31;;;;;;;3.00;1.25;;;23.70;58.00;;;;;;5085890;28;20063;-62
2022/06/10 11:23:25;;;;;;;1.80;1.20;;;23.60;58.40;;;;;;5088823;28;20032;-63
2022/06/10 11:26:11;;;;;;;0.95;0.95;;;23.60;58.70;;;;;;5076619;28;20429;-63
2022/06/10 11:28:42;;;;;;;1.90;1.00;;;23.50;58.60;;;;;;5072260;28;20033;-63
2022/06/10 11:31:21;;;;;;;1.20;0.80;;;23.50;58.80;;;;;;5086194;28;20027;-65
2022/06/10 11:33:52;;;;;;;1.73;1.08;;;23.40;59.10;;;;;;5094286;28;20019;-64
2022/06/10 11:36:43;;;;;;;3.42;1.35;;;23.50;59.30;;;;;;5090110;28;20020;-65
2022/06/10 11:39:29;;;;;;;2.10;1.58;;;23.50;59.30;;;;;;5075683;28;20031;-63
2022/06/10 11:41:59;;;;;;;1.35;0.90;;;23.50;59.50;;;;;;5066602;28;20032;-64
2022/06/10 11:44:28;;;;;;;1.45;0.85;;;23.40;59.60;;;;;;5070257;28;20043;-63
2022/06/10 11:47:03;;;;;;;2.03;1.15;;;23.30;59.90;;;;;;5083893;28;20485;-62
2022/06/10 11:49:40;;;;;;;1.08;1.02;;;23.30;60.10;;;;;;5071650;28;20032;-63
2022/06/10 11:52:24;;;;;;;1.67;0.85;;;23.20;60.00;;;;;;5076492;28;20471;-64
2022/06/10 11:55:14;;;;;;;2.92;0.93;;;23.20;60.50;;;;;;5087096;28;20031;-65
2022/06/10 12:00:53;;;;;;;1.48;1.20;;;23.30;60.60;;;;;;5092951;28;20050;-62
2022/06/10 12:03:58;;;;;;;1.80;1.02;;;23.40;60.50;;;;;;5076644;28;20533;-64
2022/06/10 12:06:37;;;;;;;1.13;1.02;;;23.60;60.30;;;;;;5079347;28;20044;-65
2022/06/10 12:09:37;;;;;;;0.98;0.85;;;23.90;60.20;;;;;;5088480;28;20073;-65
2022/06/10 12:12:17;;;;;;;1.95;1.20;;;24.30;59.80;;;;;;5089104;28;20048;-66
2022/06/10 12:14:47;;;;;;;1.40;1.27;;;24.70;58.30;;;;;;5075491;28;20031;-65
2022/06/10 12:17:37;;;;;;;4.38;1.42;;;24.90;57.40;;;;;;5084976;28;20027;-66
2022/06/10 12:20:10;;;;;;;2.72;1.15;;;25.10;56.90;;;;;;5089174;28;20463;-65
2022/06/10 12:22:37;;;;;;;1.30;1.10;;;25.40;55.90;;;;;;5083113;28;20028;-64
2022/06/10 12:25:14;;;;;;;1.48;0.90;;;25.40;56.20;;;;;;5072497;28;20082;-65
2022/06/10 12:27:48;;;;;;;1.17;1.02;;;25.50;57.00;;;;;;5082144;28;20092;-66
2022/06/10 12:30:18;;;;;;;1.00;1.00;;;25.70;57.00;;;;;;5086093;28;20048;-66
2022/06/10 12:32:57;;;;;;;3.97;1.10;;;25.80;56.20;;;;;;5088542;28;20100;-66
2022/06/10 12:35:31;;;;;;;1.20;1.08;;;25.80;55.90;;;;;;5090167;28;20047;-66
2022/06/10 12:38:02;;;;;;;1.63;1.50;;;25.50;55.50;;;;;;5084694;28;20050;-62
2022/06/10 12:40:35;;;;;;;3.95;1.20;;;25.30;55.50;;;;;;5084977;28;20491;-66
2022/06/10 12:43:00;;;;;;;2.90;1.10;;;25.20;55.90;;;;;;5090977;28;20020;-66
2022/06/10 12:45:32;;;;;;;1.40;1.30;;;25.10;56.00;;;;;;5083885;28;20031;-65
2022/06/10 12:48:01;;;;;;;1.98;1.48;;;25.20;55.90;;;;;;5076516;28;20017;-65
2022/06/10 12:50:33;;;;;;;3.20;1.50;;;25.60;55.60;;;;;;5089124;28;20012;-65
2022/06/10 12:53:11;;;;;;;1.65;0.95;;;25.70;55.80;;;;;;5089602;28;20035;-65
2022/06/10 12:55:51;;;;;;;1.55;1.45;;;26.10;55.50;;;;;;5081321;28;20032;-65
2022/06/10 12:58:43;;;;;;;1.45;1.10;;;26.30;54.80;;;;;;5084010;28;20029;-65
2022/06/10 13:01:29;;;;;;;1.83;1.23;;;26.40;54.00;;;;;;5081791;28;20060;-65
2022/06/10 13:03:58;;;;;;;2.10;1.23;;;26.20;53.90;;;;;;5071848;28;20032;-63
2022/06/10 13:06:29;;;;;;;1.50;0.95;;;26.00;54.60;;;;;;5067760;28;20068;-63
2022/06/10 13:09:22;;;;;;;1.40;0.90;;;25.80;54.90;;;;;;5079056;28;20545;-66
2022/06/10 13:12:15;;;;;;;1.90;1.40;;;25.70;55.60;;;;;;5080670;28;20388;-66
2022/06/10 13:14:44;;;;;;;3.03;1.27;;;25.50;55.30;;;;;;5093174;28;20028;-63
2022/06/10 13:17:27;;;;;;;1.30;1.05;;;25.30;55.50;;;;;;5082774;28;20032;-64
2022/06/10 13:19:58;;;;;;;1.58;1.35;;;25.20;55.80;;;;;;5077498;28;20560;-64
2022/06/10 13:23:10;;;;;;;1.07;0.90;;;25.10;56.20;;;;;;5074131;28;20036;-63
2022/06/10 13:25:36;;;;;;;4.03;1.33;;;25.00;56.70;;;;;;5060420;28;20541;-63
2022/06/10 13:28:02;;;;;;;1.05;0.90;;;24.90;56.90;;;;;;5069482;28;20052;-66
2022/06/10 13:30:31;;;;;;;1.05;0.93;;;24.90;57.10;;;;;;5088791;28;20368;-66
2022/06/10 13:33:06;;;;;;;1.83;1.17;;;25.10;57.10;;;;;;5089467;28;20058;-66
2022/06/10 13:35:53;;;;;;;1.95;1.75;;;25.60;56.40;;;;;;5079180;28;20025;-63